sensor_id;sensor_type;location;lat;lon;timestamp;P1;durP1;ratioP1;P2;durP2;ratioP2
19537;SDS011;9914;51.008;4.300;2023-09-08T00:02:26;1999.90;;;999.90;;
19537;SDS011;9914;51.008;4.300;2023-09-08T00:04:53;1999.90;;;999.90;;
19537;SDS011;9914;51.008;4.300;2023-09-08T00:07:19;1999.90;;;999.90;;
19537;SDS011;9914;51.008;4.300;2023-09-08T00:09:45;1999.90;;;999.90;;
19537;SDS011;9914;51.008;4.300;2023-09-08T00:12:11;1999.90;;;999.90;;
19537;SDS011;9914;51.008;4.300;2023-09-08T00:14:37;1999.90;;;999.90;;
19537;SDS011;9914;51.008;4.300;2023-09-08T00:17:03;1999.90;;;999.90;;
19537;SDS011;9914;51.008;4.300;2023-09-08T00:19:29;1999.90;;;999.90;;
19537;SDS011;9914;51.008;4.300;2023-09-08T00:21:55;1999.90;;;999.90;;
19537;SDS011;9914;51.008;4.300;2023-09-08T00:24:21;1999.90;;;999.90;;
19537;SDS011;9914;51.008;4.300;2023-09-08T00:26:47;1999.90;;;999.90;;
19537;SDS011;9914;51.008;4.300;2023-09-08T00:29:13;1999.90;;;999.90;;
19537;SDS011;9914;51.008;4.300;2023-09-08T00:31:39;1999.90;;;999.90;;
19537;SDS011;9914;51.008;4.300;2023-09-08T00:34:04;1999.90;;;999.90;;
19537;SDS011;9914;51.008;4.300;2023-09-08T00:36:31;1999.90;;;999.90;;
19537;SDS011;9914;51.008;4.300;2023-09-08T00:38:57;1999.90;;;999.90;;
19537;SDS011;9914;51.008;4.300;2023-09-08T00:41:23;1999.90;;;999.90;;
19537;SDS011;9914;51.008;4.300;2023-09-08T00:43:49;1999.90;;;999.90;;
19537;SDS011;9914;51.008;4.300;2023-09-08T00:46:15;1999.90;;;999.90;;
19537;SDS011;9914;51.008;4.300;2023-09-08T00:48:42;1999.90;;;999.90;;
19537;SDS011;9914;51.008;4.300;2023-09-08T00:51:08;1999.90;;;999.90;;
19537;SDS011;9914;51.008;4.300;2023-09-08T00:53:35;1999.90;;;999.90;;
19537;SDS011;9914;51.008;4.300;2023-09-08T00:56:01;1999.90;;;999.90;;
19537;SDS011;9914;51.008;4.300;2023-09-08T00:58:28;1999.90;;;999.90;;
19537;SDS011;9914;51.008;4.300;2023-09-08T01:00:54;1999.90;;;999.90;;
19537;SDS011;9914;51.008;4.300;2023-09-08T01:03:22;1999.90;;;999.90;;
19537;SDS011;9914;51.008;4.300;2023-09-08T01:05:48;1999.90;;;999.90;;
19537;SDS011;9914;51.008;4.300;2023-09-08T01:08:14;1999.90;;;999.90;;
19537;SDS011;9914;51.008;4.300;2023-09-08T01:10:41;1999.90;;;999.90;;
19537;SDS011;9914;51.008;4.300;2023-09-08T01:13:07;1999.90;;;999.90;;
19537;SDS011;9914;51.008;4.300;2023-09-08T01:15:32;1999.90;;;999.90;;
19537;SDS011;9914;51.008;4.300;2023-09-08T01:17:58;1999.90;;;999.90;;
19537;SDS011;9914;51.008;4.300;2023-09-08T01:20:25;1999.90;;;999.90;;
19537;SDS011;9914;51.008;4.300;2023-09-08T01:25:24;1999.90;;;999.90;;
19537;SDS011;9914;51.008;4.300;2023-09-08T01:27:52;1999.90;;;999.90;;
19537;SDS011;9914;51.008;4.300;2023-09-08T01:30:20;1999.90;;;999.90;;
19537;SDS011;9914;51.008;4.300;2023-09-08T01:32:48;1999.90;;;999.90;;
19537;SDS011;9914;51.008;4.300;2023-09-08T01:35:15;1999.90;;;999.90;;
19537;SDS011;9914;51.008;4.300;2023-09-08T01:37:47;1999.90;;;999.90;;
19537;SDS011;9914;51.008;4.300;2023-09-08T01:40:14;1999.90;;;999.90;;
19537;SDS011;9914;51.008;4.300;2023-09-08T01:42:39;1999.90;;;999.90;;
19537;SDS011;9914;51.008;4.300;2023-09-08T01:45:05;1999.90;;;999.90;;
19537;SDS011;9914;51.008;4.300;2023-09-08T01:47:32;1999.90;;;999.90;;
19537;SDS011;9914;51.008;4.300;2023-09-08T01:49:58;1999.90;;;999.90;;
19537;SDS011;9914;51.008;4.300;2023-09-08T01:52:24;1999.90;;;999.90;;
19537;SDS011;9914;51.008;4.300;2023-09-08T01:54:50;1999.90;;;999.90;;
19537;SDS011;9914;51.008;4.300;2023-09-08T01:57:16;1999.90;;;999.90;;
19537;SDS011;9914;51.008;4.300;2023-09-08T01:59:42;1999.90;;;999.90;;
19537;SDS011;9914;51.008;4.300;2023-09-08T02:02:09;1999.90;;;999.90;;
19537;SDS011;9914;51.008;4.300;2023-09-08T02:04:35;1999.90;;;999.90;;
19537;SDS011;9914;51.008;4.300;2023-09-08T02:07:01;1999.90;;;999.90;;
19537;SDS011;9914;51.008;4.300;2023-09-08T02:09:32;1999.90;;;999.90;;
19537;SDS011;9914;51.008;4.300;2023-09-08T02:12:02;1999.90;;;999.90;;
19537;SDS011;9914;51.008;4.300;2023-09-08T02:14:28;1999.90;;;999.90;;
19537;SDS011;9914;51.008;4.300;2023-09-08T02:16:54;1999.90;;;999.90;;
19537;SDS011;9914;51.008;4.300;2023-09-08T02:19:20;1999.90;;;999.90;;
19537;SDS011;9914;51.008;4.300;2023-09-08T02:21:45;1999.90;;;999.90;;
19537;SDS011;9914;51.008;4.300;2023-09-08T02:24:11;1999.90;;;999.90;;
19537;SDS011;9914;51.008;4.300;2023-09-08T02:26:38;1999.90;;;999.90;;
19537;SDS011;9914;51.008;4.300;2023-09-08T02:29:04;1999.90;;;999.90;;
19537;SDS011;9914;51.008;4.300;2023-09-08T02:31:30;1999.90;;;999.90;;
19537;SDS011;9914;51.008;4.300;2023-09-08T02:33:55;1999.90;;;999.90;;
19537;SDS011;9914;51.008;4.300;2023-09-08T02:36:21;1999.90;;;999.90;;
19537;SDS011;9914;51.008;4.300;2023-09-08T02:38:53;1999.90;;;999.90;;
19537;SDS011;9914;51.008;4.300;2023-09-08T02:41:19;1999.90;;;999.90;;
19537;SDS011;9914;51.008;4.300;2023-09-08T02:43:45;1999.90;;;999.90;;
19537;SDS011;9914;51.008;4.300;2023-09-08T02:46:11;1999.90;;;999.90;;
19537;SDS011;9914;51.008;4.300;2023-09-08T02:48:37;1999.90;;;999.90;;
19537;SDS011;9914;51.008;4.300;2023-09-08T02:51:03;1999.90;;;999.90;;
19537;SDS011;9914;51.008;4.300;2023-09-08T02:53:29;1999.90;;;999.90;;
19537;SDS011;9914;51.008;4.300;2023-09-08T02:55:55;1999.90;;;999.90;;
19537;SDS011;9914;51.008;4.300;2023-09-08T02:58:21;1999.90;;;999.90;;
19537;SDS011;9914;51.008;4.300;2023-09-08T03:00:47;1999.90;;;999.90;;
19537;SDS011;9914;51.008;4.300;2023-09-08T03:03:13;1999.90;;;999.90;;
19537;SDS011;9914;51.008;4.300;2023-09-08T03:05:39;1999.90;;;999.90;;
19537;SDS011;9914;51.008;4.300;2023-09-08T03:08:05;1999.90;;;999.90;;
19537;SDS011;9914;51.008;4.300;2023-09-08T03:10:31;1999.90;;;999.90;;
19537;SDS011;9914;51.008;4.300;2023-09-08T03:13:01;1999.90;;;999.90;;
19537;SDS011;9914;51.008;4.300;2023-09-08T03:15:28;1999.90;;;999.90;;
19537;SDS011;9914;51.008;4.300;2023-09-08T03:17:54;1999.90;;;999.90;;
19537;SDS011;9914;51.008;4.300;2023-09-08T03:20:20;1999.90;;;999.90;;
19537;SDS011;9914;51.008;4.300;2023-09-08T03:22:46;1999.90;;;999.90;;
19537;SDS011;9914;51.008;4.300;2023-09-08T03:25:13;1999.90;;;999.90;;
19537;SDS011;9914;51.008;4.300;2023-09-08T03:27:39;1999.90;;;999.90;;
19537;SDS011;9914;51.008;4.300;2023-09-08T03:30:06;1999.90;;;999.90;;
19537;SDS011;9914;51.008;4.300;2023-09-08T03:32:33;1999.90;;;999.90;;
19537;SDS011;9914;51.008;4.300;2023-09-08T03:34:59;1999.90;;;999.90;;
19537;SDS011;9914;51.008;4.300;2023-09-08T03:37:24;1999.90;;;999.90;;
19537;SDS011;9914;51.008;4.300;2023-09-08T03:39:51;1999.90;;;999.90;;
19537;SDS011;9914;51.008;4.300;2023-09-08T03:42:18;1999.90;;;999.90;;
19537;SDS011;9914;51.008;4.300;2023-09-08T03:44:43;1999.90;;;999.90;;
19537;SDS011;9914;51.008;4.300;2023-09-08T03:47:09;1999.90;;;999.90;;
19537;SDS011;9914;51.008;4.300;2023-09-08T03:49:35;1999.90;;;999.90;;
19537;SDS011;9914;51.008;4.300;2023-09-08T03:52:00;1999.90;;;999.90;;
19537;SDS011;9914;51.008;4.300;2023-09-08T03:54:26;1999.90;;;999.90;;
19537;SDS011;9914;51.008;4.300;2023-09-08T03:56:52;1999.90;;;999.90;;
19537;SDS011;9914;51.008;4.300;2023-09-08T03:59:18;1999.90;;;999.90;;
19537;SDS011;9914;51.008;4.300;2023-09-08T04:01:43;1999.90;;;999.90;;
19537;SDS011;9914;51.008;4.300;2023-09-08T04:04:09;1999.90;;;999.90;;
19537;SDS011;9914;51.008;4.300;2023-09-08T04:06:35;1999.90;;;999.90;;
19537;SDS011;9914;51.008;4.300;2023-09-08T04:09:00;1999.90;;;999.90;;
19537;SDS011;9914;51.008;4.300;2023-09-08T04:11:26;1999.90;;;999.90;;
19537;SDS011;9914;51.008;4.300;2023-09-08T04:13:53;1999.90;;;999.90;;
19537;SDS011;9914;51.008;4.300;2023-09-08T04:16:18;1999.90;;;999.90;;
19537;SDS011;9914;51.008;4.300;2023-09-08T04:18:44;1999.90;;;999.90;;
19537;SDS011;9914;51.008;4.300;2023-09-08T04:21:10;1999.90;;;999.90;;
19537;SDS011;9914;51.008;4.300;2023-09-08T04:23:35;1999.90;;;999.90;;
19537;SDS011;9914;51.008;4.300;2023-09-08T04:26:01;1999.90;;;999.90;;
19537;SDS011;9914;51.008;4.300;2023-09-08T04:28:27;1999.90;;;999.90;;
19537;SDS011;9914;51.008;4.300;2023-09-08T04:30:53;1999.90;;;999.90;;
19537;SDS011;9914;51.008;4.300;2023-09-08T04:33:18;1999.90;;;999.90;;
19537;SDS011;9914;51.008;4.300;2023-09-08T04:35:44;1999.90;;;999.90;;
19537;SDS011;9914;51.008;4.300;2023-09-08T04:38:10;1999.90;;;999.90;;
19537;SDS011;9914;51.008;4.300;2023-09-08T04:40:36;1999.90;;;999.90;;
19537;SDS011;9914;51.008;4.300;2023-09-08T04:43:05;1999.90;;;999.90;;
19537;SDS011;9914;51.008;4.300;2023-09-08T04:45:30;1999.90;;;999.90;;
19537;SDS011;9914;51.008;4.300;2023-09-08T04:47:56;1999.90;;;999.90;;
19537;SDS011;9914;51.008;4.300;2023-09-08T04:50:22;1999.90;;;999.90;;
19537;SDS011;9914;51.008;4.300;2023-09-08T04:52:47;1999.90;;;999.90;;
19537;SDS011;9914;51.008;4.300;2023-09-08T04:55:13;1999.90;;;999.90;;
19537;SDS011;9914;51.008;4.300;2023-09-08T04:57:38;1999.90;;;999.90;;
19537;SDS011;9914;51.008;4.300;2023-09-08T05:00:04;1999.90;;;999.90;;
19537;SDS011;9914;51.008;4.300;2023-09-08T05:02:31;1999.90;;;999.90;;
19537;SDS011;9914;51.008;4.300;2023-09-08T05:04:57;1999.90;;;999.90;;
19537;SDS011;9914;51.008;4.300;2023-09-08T05:07:22;1999.90;;;999.90;;
19537;SDS011;9914;51.008;4.300;2023-09-08T05:09:48;1999.90;;;999.90;;
19537;SDS011;9914;51.008;4.300;2023-09-08T05:12:14;1999.90;;;999.90;;
19537;SDS011;9914;51.008;4.300;2023-09-08T05:14:40;1999.90;;;999.90;;
19537;SDS011;9914;51.008;4.300;2023-09-08T05:17:07;1999.90;;;999.90;;
19537;SDS011;9914;51.008;4.300;2023-09-08T05:19:33;1999.90;;;999.90;;
19537;SDS011;9914;51.008;4.300;2023-09-08T05:21:58;1999.90;;;999.90;;
19537;SDS011;9914;51.008;4.300;2023-09-08T05:24:24;1999.90;;;999.90;;
19537;SDS011;9914;51.008;4.300;2023-09-08T05:26:51;1999.90;;;999.90;;
19537;SDS011;9914;51.008;4.300;2023-09-08T05:29:17;1999.90;;;999.90;;
19537;SDS011;9914;51.008;4.300;2023-09-08T05:31:43;1999.90;;;999.90;;
19537;SDS011;9914;51.008;4.300;2023-09-08T05:34:08;1999.90;;;999.90;;
19537;SDS011;9914;51.008;4.300;2023-09-08T05:36:34;1999.90;;;999.90;;
19537;SDS011;9914;51.008;4.300;2023-09-08T05:39:04;1999.90;;;999.90;;
19537;SDS011;9914;51.008;4.300;2023-09-08T05:41:30;1999.90;;;999.90;;
19537;SDS011;9914;51.008;4.300;2023-09-08T05:43:57;1999.90;;;999.90;;
19537;SDS011;9914;51.008;4.300;2023-09-08T05:46:22;1999.90;;;999.90;;
19537;SDS011;9914;51.008;4.300;2023-09-08T05:48:48;1999.90;;;999.90;;
19537;SDS011;9914;51.008;4.300;2023-09-08T05:51:14;1999.90;;;999.90;;
19537;SDS011;9914;51.008;4.300;2023-09-08T05:53:41;1999.90;;;999.90;;
19537;SDS011;9914;51.008;4.300;2023-09-08T05:56:07;1999.90;;;999.90;;
19537;SDS011;9914;51.008;4.300;2023-09-08T05:58:32;1999.90;;;999.90;;
19537;SDS011;9914;51.008;4.300;2023-09-08T06:00:59;1999.90;;;999.90;;
19537;SDS011;9914;51.008;4.300;2023-09-08T06:03:28;1999.90;;;999.90;;
19537;SDS011;9914;51.008;4.300;2023-09-08T06:05:54;1999.90;;;999.90;;
19537;SDS011;9914;51.008;4.300;2023-09-08T06:08:21;1999.90;;;999.90;;
19537;SDS011;9914;51.008;4.300;2023-09-08T06:10:46;1999.90;;;999.90;;
19537;SDS011;9914;51.008;4.300;2023-09-08T06:13:12;1999.90;;;999.90;;
19537;SDS011;9914;51.008;4.300;2023-09-08T06:15:38;1999.90;;;999.90;;
19537;SDS011;9914;51.008;4.300;2023-09-08T06:18:03;1999.90;;;999.90;;
19537;SDS011;9914;51.008;4.300;2023-09-08T06:20:29;1999.90;;;999.90;;
19537;SDS011;9914;51.008;4.300;2023-09-08T06:22:55;1999.90;;;999.90;;
19537;SDS011;9914;51.008;4.300;2023-09-08T06:25:21;1999.90;;;999.90;;
19537;SDS011;9914;51.008;4.300;2023-09-08T06:27:46;1999.90;;;999.90;;
19537;SDS011;9914;51.008;4.300;2023-09-08T06:30:12;1999.90;;;999.90;;
19537;SDS011;9914;51.008;4.300;2023-09-08T06:32:42;1999.90;;;999.90;;
19537;SDS011;9914;51.008;4.300;2023-09-08T06:35:08;1999.90;;;999.90;;
19537;SDS011;9914;51.008;4.300;2023-09-08T06:37:36;1999.90;;;999.90;;
19537;SDS011;9914;51.008;4.300;2023-09-08T06:40:05;1999.90;;;999.90;;
19537;SDS011;9914;51.008;4.300;2023-09-08T06:42:31;1999.90;;;999.90;;
19537;SDS011;9914;51.008;4.300;2023-09-08T06:44:57;1999.90;;;999.90;;
19537;SDS011;9914;51.008;4.300;2023-09-08T06:47:23;1999.90;;;999.90;;
19537;SDS011;9914;51.008;4.300;2023-09-08T06:49:49;1999.90;;;999.90;;
19537;SDS011;9914;51.008;4.300;2023-09-08T06:52:16;1999.90;;;999.90;;
19537;SDS011;9914;51.008;4.300;2023-09-08T06:54:42;1999.90;;;999.90;;
19537;SDS011;9914;51.008;4.300;2023-09-08T06:57:10;1999.90;;;999.90;;
19537;SDS011;9914;51.008;4.300;2023-09-08T06:59:35;1999.90;;;999.90;;
19537;SDS011;9914;51.008;4.300;2023-09-08T07:02:01;1999.90;;;999.90;;
19537;SDS011;9914;51.008;4.300;2023-09-08T07:04:27;1999.90;;;999.90;;
19537;SDS011;9914;51.008;4.300;2023-09-08T07:06:53;1999.90;;;999.90;;
19537;SDS011;9914;51.008;4.300;2023-09-08T07:09:19;1999.90;;;999.90;;
19537;SDS011;9914;51.008;4.300;2023-09-08T07:11:45;1999.90;;;999.90;;
19537;SDS011;9914;51.008;4.300;2023-09-08T07:14:11;1999.90;;;999.90;;
19537;SDS011;9914;51.008;4.300;2023-09-08T07:16:37;1999.90;;;999.90;;
19537;SDS011;9914;51.008;4.300;2023-09-08T07:19:03;1999.90;;;999.90;;
19537;SDS011;9914;51.008;4.300;2023-09-08T07:21:30;1999.90;;;999.90;;
19537;SDS011;9914;51.008;4.300;2023-09-08T07:23:55;1999.90;;;999.90;;
19537;SDS011;9914;51.008;4.300;2023-09-08T07:26:21;1999.90;;;999.90;;
19537;SDS011;9914;51.008;4.300;2023-09-08T07:28:47;1999.90;;;999.90;;
19537;SDS011;9914;51.008;4.300;2023-09-08T07:31:14;1999.90;;;999.90;;
19537;SDS011;9914;51.008;4.300;2023-09-08T07:33:39;1999.90;;;999.90;;
19537;SDS011;9914;51.008;4.300;2023-09-08T07:36:05;1999.90;;;999.90;;
19537;SDS011;9914;51.008;4.300;2023-09-08T07:38:33;1999.90;;;999.90;;
19537;SDS011;9914;51.008;4.300;2023-09-08T07:41:01;1999.90;;;999.90;;
19537;SDS011;9914;51.008;4.300;2023-09-08T07:43:27;1999.90;;;999.90;;
19537;SDS011;9914;51.008;4.300;2023-09-08T07:45:53;1999.90;;;999.90;;
19537;SDS011;9914;51.008;4.300;2023-09-08T07:48:19;1999.90;;;999.90;;
19537;SDS011;9914;51.008;4.300;2023-09-08T07:50:45;1999.90;;;999.90;;
19537;SDS011;9914;51.008;4.300;2023-09-08T07:53:11;1999.90;;;999.90;;
19537;SDS011;9914;51.008;4.300;2023-09-08T07:55:37;1999.90;;;999.90;;
19537;SDS011;9914;51.008;4.300;2023-09-08T07:58:02;1999.90;;;999.90;;
19537;SDS011;9914;51.008;4.300;2023-09-08T08:00:28;1999.90;;;999.90;;
19537;SDS011;9914;51.008;4.300;2023-09-08T08:02:55;1999.90;;;999.90;;
19537;SDS011;9914;51.008;4.300;2023-09-08T08:05:22;1999.90;;;999.90;;
19537;SDS011;9914;51.008;4.300;2023-09-08T08:07:48;1999.90;;;999.90;;
19537;SDS011;9914;51.008;4.300;2023-09-08T08:10:14;1999.90;;;999.90;;
19537;SDS011;9914;51.008;4.300;2023-09-08T08:12:40;1999.90;;;999.90;;
19537;SDS011;9914;51.008;4.300;2023-09-08T08:15:07;1999.90;;;999.90;;
19537;SDS011;9914;51.008;4.300;2023-09-08T08:17:35;1999.90;;;999.90;;
19537;SDS011;9914;51.008;4.300;2023-09-08T08:20:01;1999.90;;;999.90;;
19537;SDS011;9914;51.008;4.300;2023-09-08T08:22:38;1999.90;;;999.90;;
19537;SDS011;9914;51.008;4.300;2023-09-08T08:25:04;1999.90;;;999.90;;
19537;SDS011;9914;51.008;4.300;2023-09-08T08:27:30;1999.90;;;999.90;;
19537;SDS011;9914;51.008;4.300;2023-09-08T08:29:59;1999.90;;;999.90;;
19537;SDS011;9914;51.008;4.300;2023-09-08T08:32:26;1999.90;;;999.90;;
19537;SDS011;9914;51.008;4.300;2023-09-08T08:34:52;1999.90;;;999.90;;
19537;SDS011;9914;51.008;4.300;2023-09-08T08:37:17;1999.90;;;999.90;;
19537;SDS011;9914;51.008;4.300;2023-09-08T08:39:43;1999.90;;;999.90;;
19537;SDS011;9914;51.008;4.300;2023-09-08T08:42:09;1999.90;;;999.90;;
19537;SDS011;9914;51.008;4.300;2023-09-08T08:44:36;1999.90;;;999.90;;
19537;SDS011;9914;51.008;4.300;2023-09-08T08:47:05;1999.90;;;999.90;;
19537;SDS011;9914;51.008;4.300;2023-09-08T08:49:32;1999.90;;;999.90;;
19537;SDS011;9914;51.008;4.300;2023-09-08T08:51:59;1999.90;;;999.90;;
19537;SDS011;9914;51.008;4.300;2023-09-08T08:54:28;1999.90;;;999.90;;
19537;SDS011;9914;51.008;4.300;2023-09-08T08:56:55;1999.90;;;999.90;;
19537;SDS011;9914;51.008;4.300;2023-09-08T08:59:21;1999.90;;;999.90;;
19537;SDS011;9914;51.008;4.300;2023-09-08T09:01:48;1999.90;;;999.90;;
19537;SDS011;9914;51.008;4.300;2023-09-08T09:04:14;1999.90;;;999.90;;
19537;SDS011;9914;51.008;4.300;2023-09-08T09:06:41;1999.90;;;999.90;;
19537;SDS011;9914;51.008;4.300;2023-09-08T09:09:07;1999.90;;;999.90;;
19537;SDS011;9914;51.008;4.300;2023-09-08T09:11:33;1999.90;;;999.90;;
19537;SDS011;9914;51.008;4.300;2023-09-08T09:13:59;1999.90;;;999.90;;
19537;SDS011;9914;51.008;4.300;2023-09-08T09:16:25;1999.90;;;999.90;;
19537;SDS011;9914;51.008;4.300;2023-09-08T09:18:54;1999.90;;;999.90;;
19537;SDS011;9914;51.008;4.300;2023-09-08T09:21:21;1999.90;;;999.90;;
19537;SDS011;9914;51.008;4.300;2023-09-08T09:23:47;1999.90;;;999.90;;
19537;SDS011;9914;51.008;4.300;2023-09-08T09:26:22;1999.90;;;999.90;;
19537;SDS011;9914;51.008;4.300;2023-09-08T09:28:49;1999.90;;;999.90;;
19537;SDS011;9914;51.008;4.300;2023-09-08T09:31:17;1999.90;;;999.90;;
19537;SDS011;9914;51.008;4.300;2023-09-08T09:33:43;1999.90;;;999.90;;
19537;SDS011;9914;51.008;4.300;2023-09-08T09:36:10;1999.90;;;999.90;;
19537;SDS011;9914;51.008;4.300;2023-09-08T09:38:46;1999.90;;;999.90;;
19537;SDS011;9914;51.008;4.300;2023-09-08T09:41:12;1999.90;;;999.90;;
19537;SDS011;9914;51.008;4.300;2023-09-08T09:43:38;1999.90;;;999.90;;
19537;SDS011;9914;51.008;4.300;2023-09-08T09:46:06;1999.90;;;999.90;;
19537;SDS011;9914;51.008;4.300;2023-09-08T09:48:33;1999.90;;;999.90;;
19537;SDS011;9914;51.008;4.300;2023-09-08T09:51:00;1999.90;;;999.90;;
19537;SDS011;9914;51.008;4.300;2023-09-08T09:53:46;1999.90;;;999.90;;
19537;SDS011;9914;51.008;4.300;2023-09-08T09:56:13;1999.90;;;999.90;;
19537;SDS011;9914;51.008;4.300;2023-09-08T09:58:42;1999.90;;;999.90;;
19537;SDS011;9914;51.008;4.300;2023-09-08T10:01:08;1999.90;;;999.90;;
19537;SDS011;9914;51.008;4.300;2023-09-08T10:03:37;1999.90;;;999.90;;
19537;SDS011;9914;51.008;4.300;2023-09-08T10:06:04;1999.90;;;999.90;;
19537;SDS011;9914;51.008;4.300;2023-09-08T10:08:31;1999.90;;;999.90;;
19537;SDS011;9914;51.008;4.300;2023-09-08T10:11:02;1999.90;;;999.90;;
19537;SDS011;9914;51.008;4.300;2023-09-08T10:13:31;1999.90;;;999.90;;
19537;SDS011;9914;51.008;4.300;2023-09-08T10:16:05;1999.90;;;999.90;;
19537;SDS011;9914;51.008;4.300;2023-09-08T10:18:33;1999.90;;;999.90;;
19537;SDS011;9914;51.008;4.300;2023-09-08T10:21:00;1999.90;;;999.90;;
19537;SDS011;9914;51.008;4.300;2023-09-08T10:23:37;1999.90;;;999.90;;
19537;SDS011;9914;51.008;4.300;2023-09-08T10:26:08;1999.90;;;999.90;;
19537;SDS011;9914;51.008;4.300;2023-09-08T10:28:35;1999.90;;;999.90;;
19537;SDS011;9914;51.008;4.300;2023-09-08T10:31:03;1999.90;;;999.90;;
19537;SDS011;9914;51.008;4.300;2023-09-08T10:33:30;1999.90;;;999.90;;
19537;SDS011;9914;51.008;4.300;2023-09-08T10:35:57;1999.90;;;999.90;;
19537;SDS011;9914;51.008;4.300;2023-09-08T10:38:27;1999.90;;;999.90;;
19537;SDS011;9914;51.008;4.300;2023-09-08T10:44:06;1999.90;;;999.90;;
19537;SDS011;9914;51.008;4.300;2023-09-08T10:46:32;1999.90;;;999.90;;
19537;SDS011;9914;51.008;4.300;2023-09-08T10:49:04;1999.90;;;999.90;;
19537;SDS011;9914;51.008;4.300;2023-09-08T10:51:33;1999.90;;;999.90;;
19537;SDS011;9914;51.008;4.300;2023-09-08T10:54:00;1999.90;;;999.90;;
19537;SDS011;9914;51.008;4.300;2023-09-08T10:59:22;1999.90;;;999.90;;
19537;SDS011;9914;51.008;4.300;2023-09-08T11:01:54;1999.90;;;999.90;;
19537;SDS011;9914;51.008;4.300;2023-09-08T11:04:20;1999.90;;;999.90;;
19537;SDS011;9914;51.008;4.300;2023-09-08T11:06:48;1999.90;;;999.90;;
19537;SDS011;9914;51.008;4.300;2023-09-08T11:09:14;1999.90;;;999.90;;
19537;SDS011;9914;51.008;4.300;2023-09-08T11:11:41;1999.90;;;999.90;;
19537;SDS011;9914;51.008;4.300;2023-09-08T11:14:07;1999.90;;;999.90;;
19537;SDS011;9914;51.008;4.300;2023-09-08T11:16:33;1999.90;;;999.90;;
19537;SDS011;9914;51.008;4.300;2023-09-08T11:19:00;1999.90;;;999.90;;
19537;SDS011;9914;51.008;4.300;2023-09-08T11:21:29;1999.90;;;999.90;;
19537;SDS011;9914;51.008;4.300;2023-09-08T11:24:00;1999.90;;;999.90;;
19537;SDS011;9914;51.008;4.300;2023-09-08T11:26:27;1999.90;;;999.90;;
19537;SDS011;9914;51.008;4.300;2023-09-08T11:28:53;1999.90;;;999.90;;
19537;SDS011;9914;51.008;4.300;2023-09-08T11:31:19;1999.90;;;999.90;;
19537;SDS011;9914;51.008;4.300;2023-09-08T11:33:45;1999.90;;;999.90;;
19537;SDS011;9914;51.008;4.300;2023-09-08T11:36:14;1999.90;;;999.90;;
19537;SDS011;9914;51.008;4.300;2023-09-08T11:38:41;1669.57;;;999.90;;
19537;SDS011;9914;51.008;4.300;2023-09-08T11:41:09;1768.73;;;999.90;;
19537;SDS011;9914;51.008;4.300;2023-09-08T11:43:36;1381.27;;;999.90;;
19537;SDS011;9914;51.008;4.300;2023-09-08T11:46:02;1767.40;;;999.90;;
19537;SDS011;9914;51.008;4.300;2023-09-08T11:48:28;1723.60;;;999.90;;
19537;SDS011;9914;51.008;4.300;2023-09-08T11:50:54;1584.73;;;999.90;;
19537;SDS011;9914;51.008;4.300;2023-09-08T11:53:23;1604.17;;;999.90;;
19537;SDS011;9914;51.008;4.300;2023-09-08T11:55:49;1702.70;;;999.90;;
19537;SDS011;9914;51.008;4.300;2023-09-08T11:58:15;1752.77;;;999.90;;
19537;SDS011;9914;51.008;4.300;2023-09-08T12:00:43;1511.97;;;999.90;;
19537;SDS011;9914;51.008;4.300;2023-09-08T12:03:13;1781.17;;;999.90;;
19537;SDS011;9914;51.008;4.300;2023-09-08T12:05:40;1773.43;;;999.90;;
19537;SDS011;9914;51.008;4.300;2023-09-08T12:08:07;1854.10;;;999.90;;
19537;SDS011;9914;51.008;4.300;2023-09-08T12:10:39;1623.10;;;999.90;;
19537;SDS011;9914;51.008;4.300;2023-09-08T12:13:06;1548.10;;;999.90;;
19537;SDS011;9914;51.008;4.300;2023-09-08T12:15:38;1537.57;;;999.90;;
19537;SDS011;9914;51.008;4.300;2023-09-08T12:20:38;1690.33;;;999.90;;
19537;SDS011;9914;51.008;4.300;2023-09-08T12:23:05;1546.67;;;999.90;;
19537;SDS011;9914;51.008;4.300;2023-09-08T12:25:47;1377.47;;;999.90;;
19537;SDS011;9914;51.008;4.300;2023-09-08T12:28:13;1439.33;;;999.90;;
19537;SDS011;9914;51.008;4.300;2023-09-08T12:30:40;1930.83;;;999.90;;
19537;SDS011;9914;51.008;4.300;2023-09-08T12:33:07;1367.47;;;999.90;;
19537;SDS011;9914;51.008;4.300;2023-09-08T12:35:33;1474.27;;;999.90;;
19537;SDS011;9914;51.008;4.300;2023-09-08T12:38:00;1496.00;;;999.90;;
19537;SDS011;9914;51.008;4.300;2023-09-08T12:40:28;1409.93;;;999.90;;
19537;SDS011;9914;51.008;4.300;2023-09-08T12:42:55;1624.27;;;999.90;;
19537;SDS011;9914;51.008;4.300;2023-09-08T12:45:23;1652.63;;;999.90;;
19537;SDS011;9914;51.008;4.300;2023-09-08T12:47:50;1644.17;;;999.90;;
19537;SDS011;9914;51.008;4.300;2023-09-08T12:50:16;1781.97;;;999.90;;
19537;SDS011;9914;51.008;4.300;2023-09-08T12:52:42;1812.53;;;999.90;;
19537;SDS011;9914;51.008;4.300;2023-09-08T12:55:09;1680.93;;;999.90;;
19537;SDS011;9914;51.008;4.300;2023-09-08T12:57:35;1845.90;;;999.90;;
19537;SDS011;9914;51.008;4.300;2023-09-08T13:00:02;1973.47;;;999.90;;
19537;SDS011;9914;51.008;4.300;2023-09-08T13:02:28;1751.57;;;999.90;;
19537;SDS011;9914;51.008;4.300;2023-09-08T13:04:54;1971.00;;;999.90;;
19537;SDS011;9914;51.008;4.300;2023-09-08T13:07:20;1993.93;;;999.90;;
19537;SDS011;9914;51.008;4.300;2023-09-08T13:09:46;1644.63;;;999.90;;
19537;SDS011;9914;51.008;4.300;2023-09-08T13:12:12;1819.53;;;999.90;;
19537;SDS011;9914;51.008;4.300;2023-09-08T13:14:39;1916.80;;;999.90;;
19537;SDS011;9914;51.008;4.300;2023-09-08T13:17:05;1584.90;;;999.90;;
19537;SDS011;9914;51.008;4.300;2023-09-08T13:19:34;1628.23;;;999.90;;
19537;SDS011;9914;51.008;4.300;2023-09-08T13:21:59;1870.73;;;999.90;;
19537;SDS011;9914;51.008;4.300;2023-09-08T13:24:25;1573.97;;;999.90;;
19537;SDS011;9914;51.008;4.300;2023-09-08T13:26:51;1720.63;;;999.90;;
19537;SDS011;9914;51.008;4.300;2023-09-08T13:29:18;1632.23;;;999.90;;
19537;SDS011;9914;51.008;4.300;2023-09-08T13:31:44;1732.53;;;999.90;;
19537;SDS011;9914;51.008;4.300;2023-09-08T13:34:09;1999.90;;;999.90;;
19537;SDS011;9914;51.008;4.300;2023-09-08T13:36:35;1999.90;;;999.90;;
19537;SDS011;9914;51.008;4.300;2023-09-08T13:39:01;1826.63;;;999.90;;
19537;SDS011;9914;51.008;4.300;2023-09-08T13:41:46;1999.90;;;999.90;;
19537;SDS011;9914;51.008;4.300;2023-09-08T13:44:19;1999.90;;;999.90;;
19537;SDS011;9914;51.008;4.300;2023-09-08T13:46:46;1736.57;;;999.90;;
19537;SDS011;9914;51.008;4.300;2023-09-08T13:49:12;1706.90;;;999.90;;
19537;SDS011;9914;51.008;4.300;2023-09-08T13:51:37;1998.93;;;999.90;;
19537;SDS011;9914;51.008;4.300;2023-09-08T13:54:03;1760.27;;;999.90;;
19537;SDS011;9914;51.008;4.300;2023-09-08T13:56:29;1996.70;;;999.90;;
19537;SDS011;9914;51.008;4.300;2023-09-08T13:58:54;1960.53;;;999.90;;
19537;SDS011;9914;51.008;4.300;2023-09-08T14:01:20;1839.90;;;999.90;;
19537;SDS011;9914;51.008;4.300;2023-09-08T14:03:46;1790.00;;;999.90;;
19537;SDS011;9914;51.008;4.300;2023-09-08T14:06:11;1872.87;;;999.90;;